Time;durP1;ratioP1;P1;durP2;ratioP2;P2;SDS_P1;SDS_P2;PMS_P1;PMS_P2;Temp;Humidity;BMP_temperature;BMP_pressure;BME280_temperature;BME280_humidity;BME280_pressure;Samples;Min_cycle;Max_cycle;Signal;HPM_P1;HPM_P2
2022/06/08 00:01:55;;;;;;;13.77;12.27;;;17.40;99.90;;;;;;5076325;28;20458;-78
2022/06/08 00:04:23;;;;;;;13.40;12.10;;;17.40;99.90;;;;;;5076407;28;20444;-78
2022/06/08 00:06:52;;;;;;;13.97;12.57;;;17.30;99.90;;;;;;5076797;28;20516;-78
2022/06/08 00:09:20;;;;;;;18.10;11.40;;;17.40;99.90;;;;;;5076420;28;20486;-78
2022/06/08 00:11:47;;;;;;;14.53;12.37;;;17.30;99.90;;;;;;5077168;28;20474;-78
2022/06/08 00:14:16;;;;;;;12.80;11.50;;;17.30;99.90;;;;;;5076541;28;20458;-78
2022/06/08 00:16:43;;;;;;;13.73;12.23;;;17.30;99.90;;;;;;5077113;28;20461;-79
2022/06/08 00:19:10;;;;;;;12.43;11.23;;;17.30;99.90;;;;;;5076889;28;20455;-78
2022/06/08 00:21:37;;;;;;;13.23;11.93;;;17.30;99.90;;;;;;5069602;28;20458;-78
2022/06/08 00:24:13;;;;;;;12.50;10.43;;;17.20;99.90;;;;;;5075399;28;20475;-80
2022/06/08 00:26:40;;;;;;;17.00;15.20;;;17.20;99.90;;;;;;5070196;28;20541;-79
2022/06/08 00:29:07;;;;;;;15.70;13.63;;;17.10;99.90;;;;;;5076678;28;20486;-78
2022/06/08 00:31:34;;;;;;;16.50;14.87;;;17.10;99.90;;;;;;5077091;28;20451;-80
2022/06/08 00:34:01;;;;;;;16.43;14.80;;;17.00;99.90;;;;;;5076564;28;20467;-78
2022/06/08 00:36:28;;;;;;;16.00;14.30;;;17.00;99.90;;;;;;5066994;28;20455;-78
2022/06/08 00:38:58;;;;;;;16.27;14.57;;;17.00;99.90;;;;;;5056740;28;20451;-78
2022/06/08 00:41:39;;;;;;;18.50;14.43;;;17.00;99.90;;;;;;5056686;28;20465;-79
2022/06/08 00:44:12;;;;;;;17.50;15.60;;;16.90;99.90;;;;;;5055424;28;20916;-78
2022/06/08 00:46:40;;;;;;;18.03;15.47;;;16.90;99.90;;;;;;5056459;28;20501;-78
2022/06/08 00:49:15;;;;;;;17.10;14.40;;;16.90;99.90;;;;;;5055791;28;20486;-78
2022/06/08 00:51:42;;;;;;;15.80;14.00;;;16.90;99.90;;;;;;5055942;28;20899;-79
2022/06/08 00:54:20;;;;;;;16.77;14.70;;;16.90;99.90;;;;;;5055609;28;20538;-78
2022/06/08 00:56:53;;;;;;;15.10;13.60;;;16.90;99.90;;;;;;5055260;28;20527;-79
2022/06/08 00:59:20;;;;;;;16.37;14.63;;;16.90;99.90;;;;;;5055279;28;20542;-78
2022/06/08 01:01:47;;;;;;;14.93;13.37;;;16.90;99.90;;;;;;5054736;28;20558;-79
2022/06/08 01:04:16;;;;;;;14.20;12.70;;;16.90;99.90;;;;;;5054813;28;20451;-79
2022/06/08 01:06:48;;;;;;;16.20;14.53;;;16.90;99.90;;;;;;5055145;28;20546;-80
2022/06/08 01:09:20;;;;;;;14.83;13.43;;;16.80;99.90;;;;;;5055204;28;20519;-78
2022/06/08 01:11:49;;;;;;;16.30;14.17;;;16.80;99.90;;;;;;5055119;28;20546;-78
2022/06/08 01:14:19;;;;;;;15.30;13.70;;;16.80;99.90;;;;;;5054571;28;20451;-78
2022/06/08 01:16:51;;;;;;;15.30;13.70;;;16.70;99.90;;;;;;5054991;28;20522;-79
2022/06/08 01:19:18;;;;;;;13.73;11.97;;;16.70;99.90;;;;;;5055731;28;20478;-79
2022/06/08 01:21:48;;;;;;;17.60;15.13;;;16.70;99.90;;;;;;5055144;28;20517;-78
2022/06/08 01:24:15;;;;;;;15.27;13.30;;;16.60;99.90;;;;;;5055273;28;20453;-80
2022/06/08 01:26:50;;;;;;;15.70;12.43;;;16.50;99.90;;;;;;5056132;28;20455;-78
2022/06/08 01:29:23;;;;;;;19.50;16.87;;;16.50;99.90;;;;;;5065172;28;20474;-80
2022/06/08 01:32:02;;;;;;;15.73;14.03;;;16.40;99.90;;;;;;5055803;28;20503;-78
2022/06/08 01:34:37;;;;;;;15.13;13.33;;;16.40;99.90;;;;;;5055147;28;20474;-80
2022/06/08 01:37:23;;;;;;;15.43;13.80;;;16.40;99.90;;;;;;5055549;28;20889;-78
2022/06/08 01:40:14;;;;;;;16.67;13.57;;;16.40;99.90;;;;;;5055568;28;20447;-78
2022/06/08 01:42:56;;;;;;;15.33;13.70;;;16.40;99.90;;;;;;5055093;28;20565;-79
2022/06/08 01:45:36;;;;;;;16.03;13.83;;;16.40;99.90;;;;;;5055858;28;20551;-78
2022/06/08 01:48:23;;;;;;;16.03;14.13;;;16.40;99.90;;;;;;5055987;28;20562;-78
2022/06/08 01:50:58;;;;;;;21.43;13.60;;;16.40;99.90;;;;;;5055263;28;20522;-78
2022/06/08 01:53:37;;;;;;;16.30;14.70;;;16.30;99.90;;;;;;5064391;28;20490;-78
2022/06/08 01:56:12;;;;;;;15.90;13.90;;;16.30;99.90;;;;;;5064391;28;20479;-80
2022/06/08 01:58:45;;;;;;;18.60;15.67;;;16.30;99.90;;;;;;5064765;28;20448;-79
2022/06/08 02:01:20;;;;;;;18.80;14.73;;;16.20;99.90;;;;;;5064230;28;20452;-78
2022/06/08 02:03:57;;;;;;;14.60;12.77;;;16.20;99.90;;;;;;5063199;28;20891;-78
2022/06/08 02:06:41;;;;;;;14.83;13.20;;;16.10;99.90;;;;;;5063056;28;20470;-79
2022/06/08 02:09:14;;;;;;;16.70;13.77;;;16.10;99.90;;;;;;5058236;28;20501;-80
2022/06/08 02:11:46;;;;;;;14.40;12.47;;;16.10;99.90;;;;;;5058057;28;20456;-81
2022/06/08 02:14:16;;;;;;;15.13;12.47;;;16.10;99.90;;;;;;5056822;28;20494;-79
2022/06/08 02:16:48;;;;;;;15.00;12.30;;;16.00;99.90;;;;;;5058215;28;20511;-80
2022/06/08 02:19:19;;;;;;;14.57;12.97;;;16.00;99.90;;;;;;5057335;28;20446;-80
2022/06/08 02:21:51;;;;;;;16.47;14.87;;;15.90;99.90;;;;;;5055982;28;20490;-79
2022/06/08 02:24:24;;;;;;;16.20;14.50;;;15.90;99.90;;;;;;5056262;28;20543;-80
2022/06/08 02:26:58;;;;;;;15.50;13.90;;;15.90;99.90;;;;;;5056695;28;20488;-81
2022/06/08 02:29:30;;;;;;;14.93;13.37;;;15.90;99.90;;;;;;5056112;28;20583;-80
2022/06/08 02:32:02;;;;;;;16.43;14.17;;;15.90;99.90;;;;;;5055535;28;20902;-79
2022/06/08 02:34:34;;;;;;;15.03;13.53;;;15.90;99.90;;;;;;5055820;28;20948;-81
2022/06/08 02:37:11;;;;;;;15.80;14.07;;;15.90;99.90;;;;;;5055635;28;20502;-79
2022/06/08 02:39:44;;;;;;;16.97;15.13;;;15.90;99.90;;;;;;5054932;28;20451;-79
2022/06/08 02:42:16;;;;;;;15.87;12.80;;;15.90;99.90;;;;;;5055008;28;20477;-79
2022/06/08 02:44:44;;;;;;;15.67;14.03;;;15.80;99.90;;;;;;5054390;28;20955;-79
2022/06/08 02:47:16;;;;;;;15.30;13.73;;;15.80;99.90;;;;;;5054223;28;20455;-80
2022/06/08 02:49:43;;;;;;;15.83;14.23;;;15.80;99.90;;;;;;5054378;28;20870;-80
2022/06/08 02:52:19;;;;;;;16.53;14.80;;;15.80;99.90;;;;;;5054555;28;20567;-80
2022/06/08 02:54:51;;;;;;;17.00;14.53;;;15.80;99.90;;;;;;5053978;28;20463;-82
2022/06/08 02:57:25;;;;;;;16.80;15.00;;;15.70;99.90;;;;;;5054181;28;20441;-81
2022/06/08 02:59:59;;;;;;;17.90;15.10;;;15.70;99.90;;;;;;5054590;28;20454;-80
2022/06/08 03:02:30;;;;;;;16.20;14.47;;;15.60;99.90;;;;;;5057148;28;20496;-81
2022/06/08 03:05:03;;;;;;;19.70;14.07;;;15.60;99.90;;;;;;5057452;28;20985;-80
2022/06/08 03:07:34;;;;;;;17.37;15.57;;;15.60;99.90;;;;;;5057932;28;20465;-80
2022/06/08 03:10:06;;;;;;;17.50;14.90;;;15.60;99.90;;;;;;5057967;28;20479;-78
2022/06/08 03:12:37;;;;;;;18.20;15.60;;;15.60;99.90;;;;;;5058179;28;20997;-80
2022/06/08 03:15:05;;;;;;;17.03;15.23;;;15.50;99.90;;;;;;5057940;28;20530;-81
2022/06/08 03:17:35;;;;;;;15.67;14.07;;;15.60;99.90;;;;;;5058241;28;20456;-81
2022/06/08 03:20:04;;;;;;;22.73;14.37;;;15.60;99.90;;;;;;5058122;28;20533;-80
2022/06/08 03:22:31;;;;;;;16.57;13.00;;;15.50;99.90;;;;;;5178512;22;20461;-81
2022/06/08 03:24:59;;;;;;;18.07;15.63;;;15.50;99.90;;;;;;5105795;28;20434;-81
2022/06/08 03:27:27;;;;;;;15.70;13.83;;;15.50;99.90;;;;;;5108683;28;20545;-82
2022/06/08 03:29:54;;;;;;;16.70;14.23;;;15.50;99.90;;;;;;5104566;28;21141;-82
2022/06/08 03:32:21;;;;;;;15.63;14.00;;;15.50;99.90;;;;;;5104642;28;20479;-81
2022/06/08 03:34:48;;;;;;;14.03;12.53;;;15.50;99.90;;;;;;5105228;28;20492;-82
2022/06/08 03:37:16;;;;;;;13.63;12.23;;;15.50;99.90;;;;;;5103984;28;20970;-82
2022/06/08 03:39:43;;;;;;;15.67;12.63;;;15.50;99.90;;;;;;5104664;28;20807;-82
2022/06/08 03:42:10;;;;;;;14.87;13.20;;;15.50;99.90;;;;;;5103831;28;20964;-82
2022/06/08 03:44:39;;;;;;;13.57;12.00;;;15.50;99.90;;;;;;5104073;28;20474;-82
2022/06/08 03:47:08;;;;;;;14.07;12.50;;;15.60;99.90;;;;;;5103517;28;20829;-82
2022/06/08 03:49:36;;;;;;;13.07;11.53;;;15.60;99.90;;;;;;5103065;28;20491;-82
2022/06/08 03:52:07;;;;;;;14.50;11.93;;;15.60;99.90;;;;;;5103094;28;20499;-82
2022/06/08 03:54:43;;;;;;;13.20;11.80;;;15.70;99.90;;;;;;5103652;28;20447;-83
2022/06/08 03:57:12;;;;;;;13.87;12.47;;;15.70;99.90;;;;;;5103513;28;20430;-81
2022/06/08 03:59:41;;;;;;;13.97;12.50;;;15.70;99.90;;;;;;5103024;28;20463;-81
2022/06/08 04:02:09;;;;;;;12.03;10.70;;;15.80;99.90;;;;;;5103484;28;20464;-80
2022/06/08 04:04:39;;;;;;;14.07;12.67;;;15.80;99.90;;;;;;5107400;28;20460;-82
2022/06/08 04:07:11;;;;;;;12.37;10.97;;;15.90;99.90;;;;;;5107251;28;20446;-82
2022/06/08 04:09:39;;;;;;;12.87;11.33;;;16.00;99.90;;;;;;5104810;28;20485;-82
2022/06/08 04:12:07;;;;;;;12.83;10.70;;;16.10;99.90;;;;;;5103839;28;20460;-82
2022/06/08 04:14:35;;;;;;;12.57;10.53;;;16.10;99.90;;;;;;5104562;28;20458;-82
2022/06/08 04:17:07;;;;;;;12.77;10.83;;;16.20;99.90;;;;;;5104657;28;20510;-82
2022/06/08 04:19:35;;;;;;;11.23;9.77;;;16.20;99.90;;;;;;5103173;28;20457;-81
2022/06/08 04:22:02;;;;;;;10.33;8.93;;;16.20;99.90;;;;;;5102345;28;20458;-81
2022/06/08 04:24:29;;;;;;;13.67;11.00;;;16.30;99.90;;;;;;5101993;28;20464;-81
2022/06/08 04:26:57;;;;;;;10.60;8.50;;;16.40;99.90;;;;;;5102292;28;20465;-82
2022/06/08 04:29:24;;;;;;;10.80;9.20;;;16.40;99.90;;;;;;5101681;28;20480;-81
2022/06/08 04:31:51;;;;;;;8.90;7.60;;;16.40;99.90;;;;;;5101765;28;20977;-81
2022/06/08 04:34:21;;;;;;;8.00;6.97;;;16.50;99.90;;;;;;5101833;28;20482;-81
2022/06/08 04:36:49;;;;;;;8.97;6.70;;;16.60;99.90;;;;;;5102518;28;20466;-81
2022/06/08 04:39:18;;;;;;;8.80;5.83;;;16.60;99.90;;;;;;5102032;28;20457;-81
2022/06/08 04:41:46;;;;;;;11.63;6.33;;;16.60;99.90;;;;;;5102975;28;20452;-82
2022/06/08 04:44:14;;;;;;;7.83;5.77;;;16.70;99.90;;;;;;5102770;28;20485;-82
2022/06/08 04:46:41;;;;;;;7.30;6.03;;;16.70;99.90;;;;;;5102651;28;20892;-82
2022/06/08 04:49:09;;;;;;;5.70;4.60;;;16.70;99.90;;;;;;5103043;28;20611;-83
2022/06/08 04:51:38;;;;;;;5.53;4.90;;;16.70;99.90;;;;;;5103103;28;20567;-81
2022/06/08 04:54:05;;;;;;;6.10;4.50;;;16.80;99.90;;;;;;5103436;28;20525;-82
2022/06/08 04:56:33;;;;;;;6.07;4.07;;;16.70;99.90;;;;;;5105795;28;20446;-81
2022/06/08 04:59:01;;;;;;;6.20;4.40;;;16.80;99.90;;;;;;5117375;28;20433;-81
2022/06/08 05:01:28;;;;;;;6.10;4.90;;;16.80;99.90;;;;;;5105710;28;20460;-82
2022/06/08 05:03:56;;;;;;;6.00;5.10;;;16.80;99.90;;;;;;5102081;28;20530;-83
2022/06/08 05:06:25;;;;;;;4.80;4.33;;;16.80;99.90;;;;;;5105141;28;20454;-83
2022/06/08 05:08:54;;;;;;;6.47;4.63;;;16.80;99.90;;;;;;5105435;28;20454;-83
2022/06/08 05:11:21;;;;;;;6.67;4.70;;;16.90;99.90;;;;;;5101815;28;20461;-83
2022/06/08 05:13:48;;;;;;;4.47;3.33;;;17.00;99.90;;;;;;5102160;28;20539;-83
2022/06/08 05:16:15;;;;;;;4.70;3.40;;;17.00;99.90;;;;;;5103731;28;20493;-83
2022/06/08 05:18:42;;;;;;;4.73;3.73;;;17.10;99.90;;;;;;5102676;28;20505;-83
2022/06/08 05:21:09;;;;;;;4.40;3.13;;;17.10;99.90;;;;;;5101358;28;20481;-83
2022/06/08 05:23:39;;;;;;;4.97;3.63;;;17.10;99.90;;;;;;5100869;28;20487;-82
2022/06/08 05:26:09;;;;;;;5.33;2.87;;;17.30;99.90;;;;;;5100918;28;20453;-83
2022/06/08 05:28:36;;;;;;;3.73;2.90;;;17.50;99.90;;;;;;5101807;28;20552;-83
2022/06/08 05:31:02;;;;;;;6.50;3.40;;;17.60;99.90;;;;;;5101802;28;21004;-82
2022/06/08 05:33:29;;;;;;;3.90;3.20;;;17.70;99.90;;;;;;5099066;28;20462;-83
2022/06/08 05:35:57;;;;;;;5.80;3.00;;;17.70;99.90;;;;;;5097848;28;21021;-82
2022/06/08 05:38:24;;;;;;;7.33;3.30;;;17.80;99.90;;;;;;5101016;28;20447;-82
2022/06/08 05:40:51;;;;;;;4.80;3.67;;;17.80;99.90;;;;;;5093517;28;20469;-82
2022/06/08 05:43:20;;;;;;;4.73;3.40;;;17.80;99.90;;;;;;5101385;28;21068;-82
2022/06/08 05:45:47;;;;;;;5.10;3.27;;;17.80;99.90;;;;;;5101346;28;20459;-81
2022/06/08 05:48:14;;;;;;;4.60;2.67;;;17.80;99.90;;;;;;5102111;28;20511;-81
2022/06/08 05:50:43;;;;;;;4.23;2.73;;;17.90;99.90;;;;;;5104992;28;20566;-81
2022/06/08 05:53:10;;;;;;;3.03;2.63;;;18.10;99.90;;;;;;5102826;28;20474;-81
2022/06/08 05:55:37;;;;;;;4.63;2.50;;;18.20;99.90;;;;;;5102933;28;20934;-81
2022/06/08 05:58:05;;;;;;;4.60;2.83;;;18.20;99.90;;;;;;5099844;28;20447;-83
2022/06/08 06:00:38;;;;;;;5.47;2.70;;;18.30;99.90;;;;;;5087488;28;20479;-83
2022/06/08 06:03:05;;;;;;;2.73;1.77;;;18.30;99.90;;;;;;5102344;28;20468;-82
2022/06/08 06:05:33;;;;;;;3.43;2.47;;;18.40;99.90;;;;;;5101738;28;20518;-81
2022/06/08 06:08:01;;;;;;;2.70;2.00;;;18.50;99.90;;;;;;5098807;28;20447;-81
2022/06/08 06:10:29;;;;;;;3.13;1.87;;;18.40;99.90;;;;;;5081210;28;20475;-82
2022/06/08 06:12:56;;;;;;;3.60;2.60;;;18.60;99.90;;;;;;5081138;28;21021;-80
2022/06/08 06:15:25;;;;;;;3.40;2.40;;;18.50;99.90;;;;;;5092295;28;20477;-81
2022/06/08 06:17:53;;;;;;;3.63;2.70;;;18.50;99.90;;;;;;5098050;28;20455;-80
2022/06/08 06:20:21;;;;;;;6.57;2.30;;;18.80;99.90;;;;;;5098266;28;20888;-80
2022/06/08 06:22:48;;;;;;;2.80;2.07;;;19.00;99.90;;;;;;5097880;28;20495;-79
2022/06/08 06:25:15;;;;;;;2.17;1.60;;;19.00;99.90;;;;;;5098063;28;20496;-81
2022/06/08 06:27:42;;;;;;;4.13;2.13;;;19.20;99.90;;;;;;5097764;28;20466;-81
2022/06/08 06:30:10;;;;;;;3.30;1.93;;;19.40;99.90;;;;;;5097482;28;20560;-82
2022/06/08 06:32:39;;;;;;;2.17;1.70;;;19.40;99.90;;;;;;5097557;28;20568;-81
2022/06/08 06:35:12;;;;;;;2.90;1.90;;;19.50;99.90;;;;;;5098049;28;20449;-81
2022/06/08 06:37:39;;;;;;;3.10;1.67;;;19.40;99.90;;;;;;5097632;28;20493;-81
2022/06/08 06:40:07;;;;;;;3.10;1.63;;;19.50;99.90;;;;;;5099230;28;20807;-81
2022/06/08 06:42:35;;;;;;;2.93;1.70;;;19.50;99.90;;;;;;5097079;28;21046;-81
2022/06/08 06:45:03;;;;;;;2.60;1.60;;;19.60;99.90;;;;;;5098366;28;20480;-80
2022/06/08 06:47:30;;;;;;;2.80;1.90;;;19.60;99.90;;;;;;5098459;28;20522;-80
2022/06/08 06:49:57;;;;;;;3.83;1.80;;;19.60;99.90;;;;;;5097825;28;20487;-80
2022/06/08 06:52:26;;;;;;;3.13;1.70;;;19.80;99.90;;;;;;5098932;28;20453;-80
2022/06/08 06:54:52;;;;;;;2.67;1.97;;;19.60;99.90;;;;;;5099316;28;20451;-80
2022/06/08 06:57:19;;;;;;;2.10;1.30;;;19.80;99.90;;;;;;5097645;28;20899;-81
2022/06/08 06:59:46;;;;;;;4.43;1.27;;;20.00;99.90;;;;;;5098049;28;20541;-82
2022/06/08 07:02:15;;;;;;;4.27;1.63;;;19.90;99.90;;;;;;5099225;28;21018;-81
2022/06/08 07:04:42;;;;;;;2.10;1.30;;;20.10;99.90;;;;;;5107347;28;20560;-80
2022/06/08 07:07:10;;;;;;;2.77;1.30;;;20.30;99.90;;;;;;5101326;28;20440;-81
2022/06/08 07:09:38;;;;;;;2.30;1.43;;;20.40;99.90;;;;;;5098770;28;20517;-81
2022/06/08 07:12:07;;;;;;;2.20;1.53;;;20.50;99.90;;;;;;5098052;28;20450;-79
2022/06/08 07:14:34;;;;;;;3.30;1.53;;;20.60;99.90;;;;;;5098759;28;20453;-81
2022/06/08 07:17:01;;;;;;;2.57;1.13;;;20.70;99.90;;;;;;5098013;28;20454;-81
2022/06/08 07:19:28;;;;;;;3.63;1.40;;;20.80;99.90;;;;;;5099201;28;20953;-81
2022/06/08 07:21:55;;;;;;;2.90;1.60;;;21.00;99.90;;;;;;5098344;28;20561;-81
2022/06/08 07:24:30;;;;;;;2.20;1.10;;;21.00;99.90;;;;;;5098558;28;20482;-81
2022/06/08 07:26:59;;;;;;;4.17;1.20;;;21.00;99.90;;;;;;5099162;28;20479;-81
2022/06/08 07:29:25;;;;;;;3.10;1.30;;;21.10;99.90;;;;;;5082537;28;20538;-81
2022/06/08 07:31:53;;;;;;;5.50;1.20;;;20.90;99.90;;;;;;5079612;28;20446;-81
2022/06/08 07:34:20;;;;;;;2.47;1.37;;;21.10;99.90;;;;;;5079121;28;20489;-81
2022/06/08 07:36:47;;;;;;;5.53;1.10;;;21.10;99.90;;;;;;5083377;28;20538;-81
2022/06/08 07:39:15;;;;;;;2.53;1.03;;;21.40;99.90;;;;;;5081657;28;21045;-82
2022/06/08 07:41:43;;;;;;;2.30;1.37;;;21.30;99.90;;;;;;5082025;28;20451;-81
2022/06/08 07:44:12;;;;;;;2.27;1.10;;;21.40;99.90;;;;;;5078954;28;20471;-82
2022/06/08 07:46:39;;;;;;;2.70;1.30;;;21.60;99.90;;;;;;5076153;28;20447;-79
2022/06/08 07:51:53;;;;;;;2.00;1.17;;;21.70;99.90;;;;;;5078817;28;20933;-80
2022/06/08 07:54:23;;;;;;;3.03;1.40;;;22.00;99.90;;;;;;5078038;28;20482;-81
2022/06/08 07:56:51;;;;;;;2.83;1.10;;;21.90;99.90;;;;;;5078874;28;20447;-83
2022/06/08 07:59:20;;;;;;;1.90;1.03;;;21.70;99.90;;;;;;5078580;28;20824;-80
2022/06/08 08:01:47;;;;;;;2.27;1.07;;;21.50;99.90;;;;;;5078284;28;20887;-79
2022/06/08 08:04:14;;;;;;;2.80;0.90;;;21.60;99.90;;;;;;5077948;28;20463;-81
2022/06/08 08:06:41;;;;;;;2.33;0.80;;;21.70;99.90;;;;;;5079076;28;20435;-80
2022/06/08 08:09:15;;;;;;;2.63;0.90;;;21.80;99.90;;;;;;5078640;28;20474;-80
2022/06/08 08:11:42;;;;;;;2.70;1.10;;;21.70;99.90;;;;;;5078524;28;21002;-80
2022/06/08 08:14:10;;;;;;;2.60;1.00;;;21.50;99.90;;;;;;5079257;28;20467;-80
2022/06/08 08:16:38;;;;;;;1.83;0.90;;;21.70;99.90;;;;;;5079153;28;20493;-81
2022/06/08 08:19:05;;;;;;;2.17;0.90;;;21.90;99.90;;;;;;5079616;28;20447;-80
2022/06/08 08:21:32;;;;;;;1.80;0.80;;;22.10;99.90;;;;;;5079547;28;20487;-80
2022/06/08 08:24:00;;;;;;;2.07;1.10;;;22.40;99.90;;;;;;5078808;28;20479;-80
2022/06/08 08:26:27;;;;;;;2.00;0.80;;;22.50;99.90;;;;;;5080037;28;20451;-83
2022/06/08 08:28:55;;;;;;;5.13;1.00;;;22.70;99.90;;;;;;5079433;28;20986;-80
2022/06/08 08:31:22;;;;;;;2.47;1.00;;;22.80;99.90;;;;;;5079713;28;20514;-81
2022/06/08 08:33:51;;;;;;;2.30;0.80;;;23.00;99.90;;;;;;5079545;28;20510;-79
2022/06/08 08:36:18;;;;;;;2.60;0.90;;;22.90;99.90;;;;;;5080441;28;20470;-81
2022/06/08 08:38:45;;;;;;;2.13;0.97;;;22.90;99.90;;;;;;5080585;28;20477;-80
2022/06/08 08:44:01;;;;;;;2.50;1.30;;;23.10;99.90;;;;;;5080269;28;20446;-80
2022/06/08 08:46:39;;;;;;;2.10;1.00;;;22.90;99.90;;;;;;5079703;28;20519;-82
2022/06/08 08:49:19;;;;;;;2.20;0.90;;;22.70;99.90;;;;;;5081443;28;20475;-80
2022/06/08 08:51:53;;;;;;;2.67;1.30;;;22.80;99.90;;;;;;5092919;28;20988;-80
2022/06/08 08:54:28;;;;;;;2.00;0.97;;;23.20;99.90;;;;;;5101970;28;20478;-80
2022/06/08 08:57:01;;;;;;;1.97;1.00;;;23.50;99.90;;;;;;5102554;28;20532;-80
2022/06/08 08:59:31;;;;;;;2.50;1.03;;;23.60;99.90;;;;;;5102784;28;20480;-80
2022/06/08 09:01:59;;;;;;;2.70;1.00;;;24.00;99.90;;;;;;5103255;28;20480;-81
2022/06/08 09:04:31;;;;;;;3.40;1.57;;;24.00;99.90;;;;;;5102265;28;20541;-80
2022/06/08 09:06:59;;;;;;;3.60;0.90;;;24.30;99.90;;;;;;5103064;28;20446;-80
2022/06/08 09:09:31;;;;;;;5.03;1.13;;;24.30;99.90;;;;;;5109042;28;20867;-80
2022/06/08 09:11:58;;;;;;;2.67;1.10;;;24.40;99.90;;;;;;5103650;28;20479;-80
2022/06/08 09:14:27;;;;;;;1.80;0.90;;;24.20;99.90;;;;;;5101098;28;20565;-81
2022/06/08 09:17:11;;;;;;;2.20;0.83;;;24.50;99.90;;;;;;5100375;28;20445;-79
2022/06/08 09:19:43;;;;;;;3.00;0.97;;;24.60;99.90;;;;;;5101360;28;20848;-81
2022/06/08 09:22:26;;;;;;;2.30;1.07;;;24.80;99.90;;;;;;5100487;28;20425;-78
2022/06/08 09:24:57;;;;;;;2.60;0.90;;;24.70;99.90;;;;;;5113336;22;20529;-78
2022/06/08 09:27:28;;;;;;;4.33;0.90;;;24.70;99.90;;;;;;5104623;28;20445;-80
2022/06/08 09:30:10;;;;;;;2.30;1.03;;;24.70;99.90;;;;;;5102186;28;20458;-79
2022/06/08 09:32:44;;;;;;;3.60;1.40;;;24.70;99.90;;;;;;5097050;28;20464;-79
2022/06/08 09:35:22;;;;;;;2.77;1.20;;;25.10;99.90;;;;;;5097105;28;20477;-79
2022/06/08 09:37:52;;;;;;;4.30;1.17;;;24.60;99.90;;;;;;5098497;28;20429;-80
2022/06/08 09:40:38;;;;;;;2.83;1.13;;;24.40;99.90;;;;;;5097995;28;20446;-78
2022/06/08 09:43:26;;;;;;;5.10;1.10;;;24.30;99.90;;;;;;5097875;28;20426;-79
2022/06/08 09:45:56;;;;;;;6.43;1.13;;;23.70;99.90;;;;;;5098095;28;20494;-78
2022/06/08 09:52:01;;;;;;;3.73;1.40;;;22.80;99.90;;;;;;5098930;28;20925;-79
2022/06/08 09:54:34;;;;;;;4.40;1.10;;;22.90;99.90;;;;;;5098661;28;20450;-79
2022/06/08 09:57:24;;;;;;;4.97;1.40;;;23.30;99.90;;;;;;5100294;28;20508;-80
2022/06/08 10:00:08;;;;;;;4.63;1.13;;;24.20;99.90;;;;;;5100784;28;20430;-77
2022/06/08 10:02:44;;;;;;;3.77;1.23;;;24.90;99.90;;;;;;5098945;28;20503;-79
2022/06/08 10:05:23;;;;;;;3.70;1.60;;;25.10;99.90;;;;;;5098640;28;20564;-78
2022/06/08 10:08:01;;;;;;;5.83;1.20;;;24.90;99.90;;;;;;5113644;28;20453;-80
2022/06/08 10:10:35;;;;;;;3.70;1.30;;;24.30;99.90;;;;;;5115189;28;20505;-77
2022/06/08 10:13:10;;;;;;;4.03;1.30;;;24.10;99.90;;;;;;5118199;28;20432;-79
2022/06/08 10:15:42;;;;;;;3.70;0.90;;;24.70;99.90;;;;;;5111622;28;20478;-80
2022/06/08 10:18:17;;;;;;;3.73;1.40;;;25.10;99.90;;;;;;5110362;28;20437;-77
2022/06/08 10:20:48;;;;;;;5.07;1.20;;;25.50;99.90;;;;;;5110043;28;20535;-78
2022/06/08 10:23:30;;;;;;;2.57;1.10;;;26.20;99.90;;;;;;5117356;28;20480;-78
2022/06/08 10:26:01;;;;;;;3.03;1.20;;;26.90;99.90;;;;;;5117507;28;20473;-79
2022/06/08 10:28:34;;;;;;;2.80;1.07;;;26.60;99.90;;;;;;5118083;28;20847;-78
2022/06/08 10:31:05;;;;;;;2.70;1.10;;;26.80;99.90;;;;;;5117568;28;20488;-79
2022/06/08 10:33:40;;;;;;;2.67;1.00;;;26.40;99.90;;;;;;5117581;28;20795;-78
2022/06/08 10:36:10;;;;;;;2.87;1.10;;;26.20;99.90;;;;;;5117664;28;20587;-78
2022/06/08 10:38:42;;;;;;;2.20;1.00;;;25.90;99.90;;;;;;5118894;28;20453;-79
2022/06/08 10:44:28;;;;;;;3.30;1.00;;;25.90;99.90;;;;;;5116357;28;20502;-78
2022/06/08 10:46:56;;;;;;;3.20;1.30;;;26.60;99.90;;;;;;5115131;28;20437;-79
2022/06/08 10:49:51;;;;;;;3.00;1.20;;;27.00;99.90;;;;;;5115609;28;20488;-78
2022/06/08 10:52:38;;;;;;;5.33;1.20;;;26.30;99.90;;;;;;5114720;28;20562;-77
2022/06/08 10:55:32;;;;;;;2.47;1.00;;;26.00;99.90;;;;;;5114595;28;20504;-78
2022/06/08 10:58:11;;;;;;;3.80;1.63;;;26.80;99.90;;;;;;5114812;28;20500;-78
2022/06/08 11:00:57;;;;;;;5.80;1.17;;;26.90;99.90;;;;;;5114834;28;20514;-78
2022/06/08 11:03:53;;;;;;;3.00;1.00;;;26.90;99.90;;;;;;5114314;28;20445;-79
2022/06/08 11:07:00;;;;;;;3.90;1.33;;;26.80;99.90;;;;;;5115824;28;20526;-79
2022/06/08 11:10:10;;;;;;;3.20;1.20;;;26.60;99.90;;;;;;5114481;28;20524;-78
2022/06/08 11:12:52;;;;;;;6.90;1.77;;;26.80;99.90;;;;;;5114723;28;20564;-77
2022/06/08 11:15:46;;;;;;;4.93;1.40;;;26.90;99.90;;;;;;5114815;28;20503;-77
2022/06/08 11:18:27;;;;;;;2.43;1.03;;;26.70;99.90;;;;;;5107121;28;20488;-78
2022/06/08 11:21:06;;;;;;;3.00;1.10;;;26.90;99.90;;;;;;5115616;28;20969;-77
2022/06/08 11:23:39;;;;;;;3.20;1.27;;;27.00;99.90;;;;;;5120607;28;20438;-80
2022/06/08 11:26:45;;;;;;;4.43;1.20;;;27.10;99.90;;;;;;5115281;28;20458;-78
2022/06/08 11:29:47;;;;;;;3.97;1.40;;;27.00;99.90;;;;;;5112570;28;20474;-78
2022/06/08 11:32:41;;;;;;;2.93;1.00;;;26.80;99.90;;;;;;5127444;28;20469;-78
2022/06/08 11:35:50;;;;;;;5.27;1.00;;;26.40;99.90;;;;;;5130314;28;20468;-78
2022/06/08 11:38:27;;;;;;;6.47;1.33;;;26.10;99.90;;;;;;5127662;28;20947;-78
2022/06/08 11:41:14;;;;;;;3.60;1.30;;;25.30;99.90;;;;;;5119335;28;20505;-79
2022/06/08 11:43:42;;;;;;;4.17;1.53;;;24.60;99.90;;;;;;5112176;28;20476;-78
2022/06/08 11:46:24;;;;;;;5.00;1.67;;;24.10;99.90;;;;;;5121348;28;20469;-79
2022/06/08 11:48:52;;;;;;;2.40;1.20;;;23.50;99.90;;;;;;5119380;28;20440;-78
2022/06/08 11:51:35;;;;;;;2.87;1.10;;;22.50;99.90;;;;;;5113100;28;20482;-78
2022/06/08 11:54:17;;;;;;;6.80;1.83;;;21.90;99.90;;;;;;5098951;28;20449;-80
2022/06/08 11:57:01;;;;;;;12.77;4.03;;;21.00;99.90;;;;;;5099801;28;20513;-79
2022/06/08 11:59:30;;;;;;;11.50;3.93;;;20.50;99.90;;;;;;5109540;28;20464;-79
2022/06/08 12:02:02;;;;;;;10.07;3.50;;;19.80;99.90;;;;;;5109991;28;20446;-78
2022/06/08 12:04:31;;;;;;;6.30;2.20;;;19.20;99.90;;;;;;5107846;28;20532;-79
2022/06/08 12:06:59;;;;;;;6.43;2.03;;;18.80;99.90;;;;;;5109033;28;20459;-78
2022/06/08 12:09:31;;;;;;;5.50;2.10;;;18.70;99.90;;;;;;5125917;28;20456;-77
2022/06/08 12:12:05;;;;;;;6.90;2.90;;;18.40;99.90;;;;;;5110036;28;20477;-78
2022/06/08 12:14:35;;;;;;;5.87;2.47;;;18.40;99.90;;;;;;5117677;28;20427;-79
2022/06/08 12:17:05;;;;;;;8.80;2.73;;;18.20;99.90;;;;;;5098737;28;20605;-79
2022/06/08 12:19:41;;;;;;;7.87;3.00;;;18.30;99.90;;;;;;5113636;28;20457;-77
2022/06/08 12:22:17;;;;;;;10.83;2.60;;;18.20;99.90;;;;;;5105451;28;20468;-78
2022/06/08 12:24:46;;;;;;;10.60;2.70;;;18.10;99.90;;;;;;5107421;28;20535;-77
2022/06/08 12:27:21;;;;;;;5.30;2.50;;;18.00;99.90;;;;;;5109064;28;20436;-77
2022/06/08 12:29:56;;;;;;;5.63;3.00;;;17.90;99.90;;;;;;5109721;28;20490;-78
2022/06/08 12:32:29;;;;;;;6.33;2.70;;;17.90;99.90;;;;;;5109582;28;20477;-78
2022/06/08 12:35:26;;;;;;;7.67;2.90;;;17.80;99.90;;;;;;5106084;28;20467;-77
2022/06/08 12:38:21;;;;;;;9.83;3.80;;;17.80;99.90;;;;;;5108265;28;20457;-77
2022/06/08 12:41:04;;;;;;;7.90;3.50;;;17.90;99.90;;;;;;5061716;28;20487;-78
2022/06/08 12:43:41;;;;;;;7.23;4.13;;;17.90;99.90;;;;;;5110200;28;20474;-77
2022/06/08 12:46:27;;;;;;;6.23;2.80;;;18.00;99.90;;;;;;5109107;28;20467;-77
2022/06/08 12:49:00;;;;;;;7.60;3.60;;;18.00;99.90;;;;;;5106263;28;20416;-77
2022/06/08 12:51:40;;;;;;;5.23;3.23;;;17.90;99.90;;;;;;5095391;28;20586;-78
2022/06/08 12:54:15;;;;;;;7.60;3.13;;;17.90;99.90;;;;;;5096367;28;20495;-79
2022/06/08 12:56:43;;;;;;;6.07;3.30;;;17.90;99.90;;;;;;5097204;28;20486;-79
2022/06/08 12:59:12;;;;;;;6.30;3.30;;;17.90;99.90;;;;;;5097804;28;20479;-78
2022/06/08 13:01:40;;;;;;;6.07;3.40;;;18.00;99.90;;;;;;5099180;28;20451;-79
2022/06/08 13:04:07;;;;;;;9.10;3.33;;;17.90;99.90;;;;;;5110740;28;20488;-79
2022/06/08 13:06:34;;;;;;;6.53;3.27;;;17.80;99.90;;;;;;5117341;28;20515;-78
2022/06/08 13:09:01;;;;;;;8.50;3.50;;;17.90;99.90;;;;;;5117407;28;20519;-80
2022/06/08 13:11:29;;;;;;;6.40;3.30;;;18.00;99.90;;;;;;5118323;28;20575;-80
2022/06/08 13:13:57;;;;;;;5.83;3.20;;;18.00;99.90;;;;;;5116528;28;20502;-81
2022/06/08 13:16:28;;;;;;;6.73;3.37;;;18.10;99.90;;;;;;5117845;28;20535;-78
2022/06/08 13:18:58;;;;;;;8.20;2.90;;;18.00;99.90;;;;;;5118271;28;20490;-79